Time;durP1;ratioP1;P1;durP2;ratioP2;P2;SDS_P1;SDS_P2;PMS_P1;PMS_P2;Temp;Humidity;BMP_temperature;BMP_pressure;BME280_temperature;BME280_humidity;BME280_pressure;Samples;Min_cycle;Max_cycle;Signal;HPM_P1;HPM_P2
2023/01/04 00:01:40;;;;;;;;;;;;;;;21.15;30.41;98733.22;5038711;28;970;-79
2023/01/04 00:04:05;;;;;;;;;;;;;;;20.90;30.70;98739.19;5038074;28;981;-79
2023/01/04 00:06:31;;;;;;;;;;;;;;;21.31;30.40;98739.09;5037700;28;891;-79
2023/01/04 00:08:56;;;;;;;;;;;;;;;21.29;30.21;98744.34;5037700;28;924;-79
2023/01/04 00:11:22;;;;;;;;;;;;;;;21.43;30.08;98746.22;5052159;28;1007;-79
2023/01/04 00:13:48;;;;;;;;;;;;;;;21.11;30.64;98749.44;5037281;28;909;-79
2023/01/04 00:16:14;;;;;;;;;;;;;;;21.03;30.50;98750.75;5037761;28;926;-79
2023/01/04 00:18:40;;;;;;;;;;;;;;;20.96;30.65;98753.69;5037386;28;1910;-79
2023/01/04 00:21:18;;;;;;;;;;;;;;;21.02;30.57;98754.81;5037650;28;936;-79
2023/01/04 00:23:45;;;;;;;;;;;;;;;21.35;30.37;98750.38;5052463;28;923;-79
2023/01/04 00:26:11;;;;;;;;;;;;;;;21.43;30.15;98756.72;5037369;28;1001;-78
2023/01/04 00:28:36;;;;;;;;;;;;;;;21.19;30.17;98753.81;5052883;28;954;-79
2023/01/04 00:31:05;;;;;;;;;;;;;;;20.99;30.65;98764.16;5037332;28;959;-79
2023/01/04 00:33:30;;;;;;;;;;;;;;;20.79;30.88;98770.44;5052758;28;1149;-79
2023/01/04 00:36:00;;;;;;;;;;;;;;;20.90;30.75;98769.50;5035844;28;2262;-79
2023/01/04 00:38:25;;;;;;;;;;;;;;;20.96;30.65;98759.34;5052487;28;1901;-79
2023/01/04 00:40:51;;;;;;;;;;;;;;;21.30;30.65;98768.63;5037432;28;949;-79
2023/01/04 00:43:16;;;;;;;;;;;;;;;21.33;30.13;98769.81;5067918;28;1086;-79
2023/01/04 00:45:42;;;;;;;;;;;;;;;21.24;30.20;98773.13;5036701;28;919;-79
2023/01/04 00:48:08;;;;;;;;;;;;;;;20.90;31.09;98775.16;5037354;28;1187;-78
2023/01/04 00:50:33;;;;;;;;;;;;;;;20.98;30.62;98766.16;5036826;28;1001;-79
2023/01/04 00:52:58;;;;;;;;;;;;;;;20.95;30.79;98771.88;5036818;28;984;-79
2023/01/04 00:55:24;;;;;;;;;;;;;;;21.14;30.59;98768.41;5036900;28;902;-79
2023/01/04 00:57:49;;;;;;;;;;;;;;;21.21;30.65;98776.00;5036507;28;1971;-79
2023/01/04 01:00:15;;;;;;;;;;;;;;;21.44;30.06;98775.31;5036624;28;972;-79
2023/01/04 01:02:40;;;;;;;;;;;;;;;21.25;30.13;98777.56;5037082;28;1126;-79
2023/01/04 01:05:06;;;;;;;;;;;;;;;21.01;30.80;98770.19;5036299;28;1006;-79
2023/01/04 01:07:32;;;;;;;;;;;;;;;20.92;31.01;98767.06;5036267;28;957;-79
2023/01/04 01:09:57;;;;;;;;;;;;;;;21.16;30.71;98765.16;5036077;28;900;-79
2023/01/04 01:12:23;;;;;;;;;;;;;;;21.36;30.17;98768.97;5050931;28;988;-79
2023/01/04 01:14:48;;;;;;;;;;;;;;;21.09;30.44;98768.88;5036389;28;903;-79
2023/01/04 01:17:13;;;;;;;;;;;;;;;20.98;30.57;98768.19;5035121;28;970;-79
2023/01/04 01:19:39;;;;;;;;;;;;;;;21.03;30.52;98767.72;5036654;28;1913;-79
2023/01/04 01:22:04;;;;;;;;;;;;;;;20.88;30.63;98775.59;5036739;28;900;-79
2023/01/04 01:24:30;;;;;;;;;;;;;;;21.14;30.53;98759.09;5036708;28;897;-79
2023/01/04 01:26:55;;;;;;;;;;;;;;;21.37;30.09;98772.59;5036067;28;1065;-79
2023/01/04 01:29:20;;;;;;;;;;;;;;;21.28;29.99;98765.38;5036509;28;879;-79
2023/01/04 01:31:46;;;;;;;;;;;;;;;21.08;30.57;98767.25;5036198;28;1163;-79
2023/01/04 01:34:11;;;;;;;;;;;;;;;20.95;30.45;98766.22;5051772;28;1040;-79
2023/01/04 01:36:37;;;;;;;;;;;;;;;20.95;30.51;98772.69;5036476;28;931;-79
2023/01/04 01:39:02;;;;;;;;;;;;;;;21.04;30.56;98775.00;5035822;28;1906;-78
2023/01/04 01:41:29;;;;;;;;;;;;;;;21.16;30.53;98765.97;5036343;28;861;-79
2023/01/04 01:43:58;;;;;;;;;;;;;;;21.36;30.18;98771.78;5036069;28;937;-79
2023/01/04 01:46:30;;;;;;;;;;;;;;;21.16;30.24;98771.63;5036273;28;987;-79
2023/01/04 01:48:57;;;;;;;;;;;;;;;20.94;30.48;98773.09;5036191;28;951;-78
2023/01/04 01:51:23;;;;;;;;;;;;;;;20.84;30.59;98776.88;5051372;28;1234;-78
2023/01/04 01:53:50;;;;;;;;;;;;;;;21.25;30.51;98776.78;5036007;28;1031;-79
2023/01/04 01:56:15;;;;;;;;;;;;;;;21.47;29.91;98769.63;5051289;28;944;-79
2023/01/04 01:58:41;;;;;;;;;;;;;;;21.25;29.86;98769.06;5051293;28;1906;-78
2023/01/04 02:01:07;;;;;;;;;;;;;;;21.05;30.40;98777.41;5036112;28;928;-79
2023/01/04 02:03:38;;;;;;;;;;;;;;;20.92;30.64;98772.72;5051829;28;1046;-78
2023/01/04 02:06:04;;;;;;;;;;;;;;;21.03;30.26;98784.69;5035873;28;969;-78
2023/01/04 02:08:30;;;;;;;;;;;;;;;21.33;29.92;98781.94;5051057;28;972;-79
2023/01/04 02:10:55;;;;;;;;;;;;;;;21.31;29.90;98784.38;5036040;28;933;-79
2023/01/04 02:13:22;;;;;;;;;;;;;;;21.41;29.76;98784.69;5051059;28;955;-78
2023/01/04 02:16:06;;;;;;;;;;;;;;;21.10;30.08;98772.50;5051037;28;930;-79
2023/01/04 02:18:32;;;;;;;;;;;;;;;21.04;30.31;98786.31;5038350;28;1906;-78
2023/01/04 02:21:01;;;;;;;;;;;;;;;21.21;29.91;98788.13;5055516;28;1053;-78
2023/01/04 02:23:42;;;;;;;;;;;;;;;21.19;30.53;98793.41;5055112;28;1184;-79
2023/01/04 02:26:25;;;;;;;;;;;;;;;21.45;29.66;98785.41;5039531;28;976;-79
2023/01/04 02:29:10;;;;;;;;;;;;;;;21.27;30.01;98783.59;5039357;28;966;-79
2023/01/04 02:31:35;;;;;;;;;;;;;;;21.13;30.40;98792.25;5039676;28;1015;-79
2023/01/04 02:34:04;;;;;;;;;;;;;;;20.97;30.34;98792.06;5037830;28;1017;-79
2023/01/04 02:36:29;;;;;;;;;;;;;;;21.05;30.80;98787.94;5039809;28;893;-78
2023/01/04 02:38:58;;;;;;;;;;;;;;;21.25;29.99;98796.59;5039159;28;1902;-79
2023/01/04 02:41:34;;;;;;;;;;;;;;;21.40;29.71;98792.38;5039538;28;1123;-79
2023/01/04 02:47:07;;;;;;;;;;;;;;;21.14;30.05;98796.72;5051573;28;919;-79
2023/01/04 02:52:17;;;;;;;;;;;;;;;21.41;30.02;98787.50;5039122;28;855;-78
2023/01/04 02:54:42;;;;;;;;;;;;;;;21.45;29.67;98782.56;5054619;28;917;-79
2023/01/04 02:57:17;;;;;;;;;;;;;;;21.06;30.25;98790.31;5039219;28;927;-79
2023/01/04 03:00:00;;;;;;;;;;;;;;;21.13;30.05;98792.25;5038823;28;1902;-78
2023/01/04 03:08:21;;;;;;;;;;;;;;;21.33;29.70;98793.25;5038880;28;912;-78
2023/01/04 03:10:52;;;;;;;;;;;;;;;21.72;29.06;98786.25;5038726;28;917;-79
2023/01/04 03:13:44;;;;;;;;;;;;;;;21.67;29.22;98795.22;5054282;28;883;-79
2023/01/04 03:16:12;;;;;;;;;;;;;;;21.22;29.75;98792.56;5036227;28;1199;-79
2023/01/04 03:18:39;;;;;;;;;;;;;;;21.25;29.59;98791.72;5019831;28;1967;-79
2023/01/04 03:21:05;;;;;;;;;;;;;;;20.93;30.28;98791.28;5019788;28;989;-79
2023/01/04 03:35:26;;;;;;;;;;;;;;;21.12;29.98;98810.47;4982657;28;1083;-79
2023/01/04 03:43:08;;;;;;;;;;;;;;;21.08;30.29;98804.03;4957688;29;1974;-79
2023/01/04 03:49:11;;;;;;;;;;;;;;;21.38;29.66;98822.31;4938489;29;1091;-79
2023/01/04 03:51:36;;;;;;;;;;;;;;;21.24;29.75;98824.09;4938257;29;943;-78
2023/01/04 03:54:09;;;;;;;;;;;;;;;21.10;30.01;98821.41;4938650;29;1016;-79
2023/01/04 03:56:34;;;;;;;;;;;;;;;20.89;30.18;98813.19;4938299;29;1150;-78
2023/01/04 03:59:00;;;;;;;;;;;;;;;20.90;30.58;98821.22;4938126;29;1902;-79
2023/01/04 04:01:25;;;;;;;;;;;;;;;20.99;30.45;98817.91;4938495;29;919;-79
2023/01/04 04:09:19;;;;;;;;;;;;;;;21.22;30.15;98820.88;5028230;28;978;-78
2023/01/04 04:11:44;;;;;;;;;;;;;;;20.92;30.29;98817.97;5035350;28;952;-79
2023/01/04 04:14:10;;;;;;;;;;;;;;;21.10;30.27;98821.41;5035519;28;973;-79
2023/01/04 04:16:35;;;;;;;;;;;;;;;21.20;30.03;98826.16;5035118;28;963;-78
2023/01/04 04:19:00;;;;;;;;;;;;;;;21.28;30.09;98829.69;5018682;28;1973;-79
2023/01/04 04:21:26;;;;;;;;;;;;;;;21.18;30.09;98831.41;5037473;28;1052;-79
2023/01/04 04:23:53;;;;;;;;;;;;;;;21.21;29.84;98830.59;5037460;28;923;-78
2023/01/04 04:26:19;;;;;;;;;;;;;;;21.18;30.12;98834.25;5035424;28;971;-78
2023/01/04 04:28:44;;;;;;;;;;;;;;;21.00;30.45;98837.28;5036976;28;1014;-78
2023/01/04 04:31:09;;;;;;;;;;;;;;;21.27;30.28;98833.75;5037314;28;976;-79
2023/01/04 04:33:35;;;;;;;;;;;;;;;21.24;30.28;98840.25;5037087;28;1020;-79
2023/01/04 04:36:00;;;;;;;;;;;;;;;21.18;30.03;98836.28;5037002;28;913;-79
2023/01/04 04:38:26;;;;;;;;;;;;;;;21.19;30.05;98844.38;5037120;28;1894;-78
2023/01/04 04:43:35;;;;;;;;;;;;;;;20.92;30.51;98846.25;5037246;28;894;-79
2023/01/04 04:46:01;;;;;;;;;;;;;;;21.05;30.23;98838.84;5052913;28;939;-79
2023/01/04 04:48:26;;;;;;;;;;;;;;;21.35;30.05;98845.81;5035886;28;1372;-78
2023/01/04 04:50:52;;;;;;;;;;;;;;;21.35;30.04;98852.28;5036905;28;910;-79
2023/01/04 04:53:17;;;;;;;;;;;;;;;21.12;30.44;98861.41;5036985;28;983;-78
2023/01/04 04:55:43;;;;;;;;;;;;;;;21.04;30.65;98857.06;5058210;28;1146;-79
2023/01/04 04:58:08;;;;;;;;;;;;;;;20.91;30.48;98862.44;5038672;28;1963;-78
2023/01/04 05:00:33;;;;;;;;;;;;;;;20.83;30.87;98865.75;5055638;28;1005;-79
2023/01/04 05:02:59;;;;;;;;;;;;;;;21.26;30.29;98861.25;5056499;28;997;-79
2023/01/04 05:05:25;;;;;;;;;;;;;;;21.62;29.61;98860.84;5034370;28;1262;-79
2023/01/04 05:07:50;;;;;;;;;;;;;;;21.26;29.91;98854.78;5034508;28;980;-79
2023/01/04 05:10:15;;;;;;;;;;;;;;;21.19;30.02;98858.50;5034116;28;967;-78
2023/01/04 05:12:59;;;;;;;;;;;;;;;21.17;30.10;98858.13;5034369;28;941;-78
2023/01/04 05:15:28;;;;;;;;;;;;;;;20.93;30.54;98862.00;5033957;28;932;-79
2023/01/04 05:17:53;;;;;;;;;;;;;;;21.21;30.32;98855.25;5017445;28;1979;-78
2023/01/04 05:20:19;;;;;;;;;;;;;;;21.40;30.38;98859.50;5017468;28;1408;-78
2023/01/04 05:22:44;;;;;;;;;;;;;;;21.41;29.89;98858.28;5034475;28;983;-78
2023/01/04 05:25:10;;;;;;;;;;;;;;;21.18;30.08;98865.38;5034069;28;930;-78
2023/01/04 05:27:36;;;;;;;;;;;;;;;20.87;30.78;98855.22;5034076;28;999;-78
2023/01/04 05:32:46;;;;;;;;;;;;;;;20.96;30.47;98847.84;5019823;28;886;-78
2023/01/04 05:35:12;;;;;;;;;;;;;;;20.76;30.97;98849.66;5034103;28;1116;-79
2023/01/04 05:37:37;;;;;;;;;;;;;;;21.04;30.76;98845.75;5036356;28;1051;-79
2023/01/04 05:40:03;;;;;;;;;;;;;;;21.39;30.10;98852.22;5036319;28;1910;-78
2023/01/04 05:42:28;;;;;;;;;;;;;;;21.46;29.73;98852.16;5035905;28;891;-78
2023/01/04 05:44:54;;;;;;;;;;;;;;;21.17;30.23;98855.28;5036129;28;916;-78
2023/01/04 05:47:20;;;;;;;;;;;;;;;20.88;30.62;98851.97;5036650;28;883;-78
2023/01/04 05:49:45;;;;;;;;;;;;;;;20.89;30.52;98858.44;5034878;28;1201;-78
2023/01/04 05:52:11;;;;;;;;;;;;;;;20.84;30.68;98853.22;5035514;28;888;-78
2023/01/04 05:54:36;;;;;;;;;;;;;;;21.14;30.61;98853.31;5036242;28;836;-78
2023/01/04 05:57:01;;;;;;;;;;;;;;;21.28;30.14;98844.63;5036277;28;925;-79
2023/01/04 05:59:27;;;;;;;;;;;;;;;21.45;30.11;98848.53;5036023;28;1973;-79
2023/01/04 06:01:52;;;;;;;;;;;;;;;21.10;30.28;98840.44;5036473;28;972;-80
2023/01/04 06:04:19;;;;;;;;;;;;;;;20.89;30.48;98841.47;5036151;28;932;-79
2023/01/04 06:06:44;;;;;;;;;;;;;;;21.06;30.43;98854.59;5036489;28;1010;-79
2023/01/04 06:09:10;;;;;;;;;;;;;;;20.97;30.46;98859.94;5017677;28;983;-79
2023/01/04 06:11:35;;;;;;;;;;;;;;;21.06;30.71;98868.75;5036408;28;1145;-79
2023/01/04 06:14:00;;;;;;;;;;;;;;;21.43;30.02;98864.31;5036112;28;880;-80
2023/01/04 06:16:26;;;;;;;;;;;;;;;21.60;29.67;98874.59;5036369;28;916;-79
2023/01/04 06:18:51;;;;;;;;;;;;;;;21.12;30.49;98886.88;5018134;28;1973;-78
2023/01/04 06:21:17;;;;;;;;;;;;;;;20.90;30.76;98885.50;5034437;28;933;-78
2023/01/04 06:23:42;;;;;;;;;;;;;;;21.02;30.79;98893.44;5036013;28;908;-78
2023/01/04 06:26:08;;;;;;;;;;;;;;;21.12;30.33;98895.38;5035946;28;1122;-77
2023/01/04 06:28:33;;;;;;;;;;;;;;;20.81;30.98;98903.75;5035833;28;945;-78
2023/01/04 06:31:03;;;;;;;;;;;;;;;21.09;30.66;98907.53;5017612;28;989;-78
2023/01/04 06:33:28;;;;;;;;;;;;;;;21.12;30.70;98912.34;5039272;28;1033;-78
2023/01/04 06:35:54;;;;;;;;;;;;;;;21.34;30.29;98915.78;5033599;28;997;-78
2023/01/04 06:38:19;;;;;;;;;;;;;;;21.24;30.19;98914.66;5033129;28;1902;-79
2023/01/04 06:40:45;;;;;;;;;;;;;;;20.99;30.80;98925.44;5033887;28;1011;-78
2023/01/04 06:43:10;;;;;;;;;;;;;;;20.93;31.07;98927.06;5033459;28;967;-78
2023/01/04 06:45:36;;;;;;;;;;;;;;;20.88;30.93;98931.19;5033551;28;946;-78
2023/01/04 06:48:01;;;;;;;;;;;;;;;21.06;30.54;98931.00;5033109;28;938;-79
2023/01/04 06:50:26;;;;;;;;;;;;;;;21.44;30.49;98933.88;5033445;28;1155;-79
2023/01/04 06:52:52;;;;;;;;;;;;;;;21.40;30.34;98950.09;5000174;28;972;-79
2023/01/04 06:55:17;;;;;;;;;;;;;;;21.22;30.42;98945.41;5033823;28;1014;-80
2023/01/04 06:57:43;;;;;;;;;;;;;;;21.04;30.66;98945.59;5033228;28;972;-79
2023/01/04 07:00:08;;;;;;;;;;;;;;;20.88;30.84;98958.66;5033190;28;1914;-80
2023/01/04 07:02:34;;;;;;;;;;;;;;;20.88;30.86;98947.31;5032914;28;1026;-79
2023/01/04 07:04:59;;;;;;;;;;;;;;;21.23;30.75;98940.53;5001911;28;1116;-79
2023/01/04 07:07:25;;;;;;;;;;;;;;;21.31;30.52;98950.59;5052751;28;902;-79
2023/01/04 07:09:50;;;;;;;;;;;;;;;21.00;31.07;98956.13;5058573;28;899;-79
2023/01/04 07:12:16;;;;;;;;;;;;;;;21.06;30.63;98957.28;5058847;28;909;-79
2023/01/04 07:14:41;;;;;;;;;;;;;;;20.98;30.91;98957.75;5057823;28;1608;-79
2023/01/04 07:17:07;;;;;;;;;;;;;;;21.20;31.03;98959.19;5045256;28;1667;-79
2023/01/04 07:19:32;;;;;;;;;;;;;;;21.19;30.88;98957.56;5058295;28;1964;-79
2023/01/04 07:21:58;;;;;;;;;;;;;;;21.33;30.46;98957.44;5058282;28;1561;-77
2023/01/04 07:24:24;;;;;;;;;;;;;;;20.94;31.11;98957.00;5058165;28;950;-80
2023/01/04 07:26:49;;;;;;;;;;;;;;;21.04;30.66;98950.44;5074001;28;931;-79
2023/01/04 07:29:18;;;;;;;;;;;;;;;20.93;31.02;98956.16;5058643;28;912;-79
2023/01/04 07:31:44;;;;;;;;;;;;;;;20.88;31.06;98950.16;5057304;28;930;-79
2023/01/04 07:34:10;;;;;;;;;;;;;;;20.81;31.22;98960.31;5073429;28;1439;-79
2023/01/04 07:36:35;;;;;;;;;;;;;;;20.86;31.33;98966.75;5058501;28;987;-79
2023/01/04 07:39:01;;;;;;;;;;;;;;;21.11;31.07;98972.19;5058309;28;1906;-79
2023/01/04 07:41:26;;;;;;;;;;;;;;;21.19;30.67;98968.91;5073841;28;935;-79
2023/01/04 07:43:52;;;;;;;;;;;;;;;21.30;30.75;98975.28;5058057;28;1164;-79
2023/01/04 07:46:17;;;;;;;;;;;;;;;21.11;30.69;98978.66;5058368;28;935;-79
2023/01/04 07:48:43;;;;;;;;;;;;;;;21.06;30.76;98979.13;5072590;28;1119;-79
2023/01/04 07:51:08;;;;;;;;;;;;;;;21.10;30.62;98974.22;5057822;28;959;-79
2023/01/04 07:53:33;;;;;;;;;;;;;;;20.86;31.11;98972.41;5057952;28;973;-80
2023/01/04 07:55:59;;;;;;;;;;;;;;;21.24;31.03;98979.75;5058345;28;1270;-79
2023/01/04 07:58:25;;;;;;;;;;;;;;;21.50;30.36;98983.16;5058032;28;1914;-79
2023/01/04 08:00:50;;;;;;;;;;;;;;;21.07;30.95;98984.34;5056358;28;1124;-79
2023/01/04 08:03:16;;;;;;;;;;;;;;;20.98;31.17;98994.53;5056616;28;1158;-79
2023/01/04 08:05:42;;;;;;;;;;;;;;;21.02;30.87;98981.16;5056716;28;955;-80
2023/01/04 08:08:07;;;;;;;;;;;;;;;20.76;31.29;98980.56;5073176;28;946;-79
2023/01/04 08:10:32;;;;;;;;;;;;;;;20.95;31.07;98984.88;5073072;28;1054;-79
2023/01/04 08:12:58;;;;;;;;;;;;;;;21.03;31.31;98979.94;5057262;28;946;-80
2023/01/04 08:15:25;;;;;;;;;;;;;;;21.09;30.88;98981.13;5057198;28;874;-79
2023/01/04 08:17:51;;;;;;;;;;;;;;;21.43;30.41;98974.75;5057545;28;1062;-79
2023/01/04 08:20:16;;;;;;;;;;;;;;;21.16;30.63;98975.38;5057191;28;1985;-79
2023/01/04 08:22:41;;;;;;;;;;;;;;;20.94;30.88;98976.81;5057495;28;1055;-79
2023/01/04 08:25:07;;;;;;;;;;;;;;;21.04;30.66;98982.38;5057543;28;983;-79
2023/01/04 08:27:33;;;;;;;;;;;;;;;21.23;31.02;98986.63;5056836;28;1680;-79
2023/01/04 08:29:58;;;;;;;;;;;;;;;21.13;31.16;98987.53;5037578;28;882;-80
2023/01/04 08:32:24;;;;;;;;;;;;;;;21.41;30.42;98991.34;5035324;28;1004;-80
2023/01/04 08:34:49;;;;;;;;;;;;;;;21.11;30.75;99001.31;5037575;28;1002;-79
2023/01/04 08:37:14;;;;;;;;;;;;;;;21.09;30.66;99000.94;5037607;28;910;-80
2023/01/04 08:39:40;;;;;;;;;;;;;;;21.16;30.67;99006.50;5037602;28;1906;-79
2023/01/04 08:42:05;;;;;;;;;;;;;;;21.01;30.88;99003.00;5037218;28;1159;-80
2023/01/04 08:44:33;;;;;;;;;;;;;;;21.46;30.66;99011.53;5037111;28;1036;-77
2023/01/04 08:46:59;;;;;;;;;;;;;;;21.46;30.42;99003.03;5036752;28;1217;-79
2023/01/04 08:49:24;;;;;;;;;;;;;;;21.42;30.49;99009.94;5036846;28;938;-79
2023/01/04 08:51:50;;;;;;;;;;;;;;;21.24;30.65;99013.72;5037177;28;924;-78
2023/01/04 08:54:15;;;;;;;;;;;;;;;21.05;30.85;99011.47;5036814;28;907;-78
2023/01/04 08:56:41;;;;;;;;;;;;;;;20.81;31.01;99008.41;5034701;28;1546;-78
2023/01/04 08:59:06;;;;;;;;;;;;;;;21.31;30.98;99010.84;5054776;28;1940;-78
2023/01/04 09:01:32;;;;;;;;;;;;;;;21.41;30.69;98992.16;5055472;28;1468;-78
2023/01/04 09:03:58;;;;;;;;;;;;;;;21.36;30.47;99005.97;5042712;28;1411;-78
2023/01/04 09:06:23;;;;;;;;;;;;;;;21.03;31.13;99008.22;5039995;28;1607;-78
2023/01/04 09:08:49;;;;;;;;;;;;;;;21.06;30.78;98998.91;5044824;28;1520;-78
2023/01/04 09:11:15;;;;;;;;;;;;;;;20.95;30.79;99004.66;5025609;28;1561;-78
2023/01/04 09:13:41;;;;;;;;;;;;;;;21.32;30.85;98994.66;5044938;28;1604;-78
2023/01/04 09:16:08;;;;;;;;;;;;;;;21.33;30.97;98994.25;5037441;28;1024;-78
2023/01/04 09:18:33;;;;;;;;;;;;;;;21.24;30.56;98999.56;5037359;28;1969;-78
2023/01/04 09:21:02;;;;;;;;;;;;;;;21.05;30.86;98991.66;5049091;28;1568;-79
2023/01/04 09:23:27;;;;;;;;;;;;;;;21.02;31.22;98998.13;5034011;28;1042;-79
2023/01/04 09:25:53;;;;;;;;;;;;;;;20.97;30.91;98995.75;5033897;28;1093;-78
2023/01/04 09:28:18;;;;;;;;;;;;;;;20.93;31.11;98978.00;5033450;28;1178;-78
2023/01/04 09:30:44;;;;;;;;;;;;;;;21.15;30.92;98985.09;5013785;28;1192;-78
2023/01/04 09:33:09;;;;;;;;;;;;;;;21.23;30.83;98980.97;5014034;28;1215;-78
2023/01/04 09:35:35;;;;;;;;;;;;;;;20.96;31.17;98980.00;5014304;28;968;-78
2023/01/04 09:38:00;;;;;;;;;;;;;;;21.06;30.76;98987.59;5014266;28;1899;-78
2023/01/04 09:40:55;;;;;;;;;;;;;;;20.86;31.04;98989.38;5014286;28;1073;-78
2023/01/04 09:43:20;;;;;;;;;;;;;;;21.03;30.87;98994.09;4974700;28;1020;-78
2023/01/04 09:45:46;;;;;;;;;;;;;;;20.95;30.95;98986.91;4958873;28;1176;-79
2023/01/04 09:48:18;;;;;;;;;;;;;;;21.03;31.19;98994.09;4958976;28;1104;-78
2023/01/04 09:50:51;;;;;;;;;;;;;;;21.28;30.77;98991.84;4958890;28;1076;-78
2023/01/04 09:53:27;;;;;;;;;;;;;;;21.43;30.47;98983.22;4958821;28;1329;-78
2023/01/04 09:55:54;;;;;;;;;;;;;;;21.21;30.66;98989.06;4958568;28;1176;-78
2023/01/04 09:58:20;;;;;;;;;;;;;;;21.24;30.62;98991.09;4974791;28;1963;-78
2023/01/04 10:00:46;;;;;;;;;;;;;;;20.94;30.81;98979.63;4977152;28;1012;-78
2023/01/04 10:03:16;;;;;;;;;;;;;;;20.98;31.12;98986.03;4978168;28;1128;-78
2023/01/04 10:05:42;;;;;;;;;;;;;;;21.53;30.40;98976.66;4974784;28;972;-78
2023/01/04 10:08:12;;;;;;;;;;;;;;;21.50;30.25;98972.66;4974486;28;1052;-79
2023/01/04 10:10:41;;;;;;;;;;;;;;;21.22;30.57;98965.22;4974843;28;1151;-78
2023/01/04 10:13:19;;;;;;;;;;;;;;;20.93;30.92;98975.16;4974535;28;935;-78
2023/01/04 10:15:50;;;;;;;;;;;;;;;20.59;31.38;98972.22;4964910;28;2081;-78
2023/01/04 10:18:34;;;;;;;;;;;;;;;20.89;31.00;98971.59;4977913;28;1903;-79
2023/01/04 10:21:09;;;;;;;;;;;;;;;21.24;30.33;98982.59;5017248;28;991;-80
2023/01/04 10:23:53;;;;;;;;;;;;;;;21.28;30.15;98977.69;5033555;28;929;-79
2023/01/04 10:26:25;;;;;;;;;;;;;;;21.06;30.25;98976.28;5033343;28;1102;-79
2023/01/04 10:29:09;;;;;;;;;;;;;;;20.92;30.32;98988.50;5033239;28;1110;-79
2023/01/04 10:31:34;;;;;;;;;;;;;;;20.66;30.88;98981.44;5033002;28;1007;-79
2023/01/04 10:34:03;;;;;;;;;;;;;;;20.91;30.50;98981.25;5033456;28;1025;-79
2023/01/04 10:36:32;;;;;;;;;;;;;;;21.09;30.06;98978.28;5024651;28;1241;-78
2023/01/04 10:38:58;;;;;;;;;;;;;;;21.38;29.55;98975.19;5038200;28;1894;-79
2023/01/04 10:41:25;;;;;;;;;;;;;;;21.31;29.60;98974.06;5056826;28;1512;-79
2023/01/04 10:43:58;;;;;;;;;;;;;;;21.22;29.53;98987.84;5024103;28;1707;-79
2023/01/04 10:46:44;;;;;;;;;;;;;;;20.93;30.08;98978.81;5057219;28;1084;-79
2023/01/04 10:49:36;;;;;;;;;;;;;;;20.80;30.30;98975.69;4995372;28;1674;-79
2023/01/04 10:52:05;;;;;;;;;;;;;;;21.01;30.03;98965.41;4912193;29;1664;-79
2023/01/04 10:54:40;;;;;;;;;;;;;;;21.21;29.87;98960.78;4912007;29;1669;-79
2023/01/04 10:57:11;;;;;;;;;;;;;;;21.29;29.31;98965.13;4932677;29;1591;-79
2023/01/04 10:59:40;;;;;;;;;;;;;;;21.04;29.78;98961.75;4904026;29;1908;-79
2023/01/04 11:02:09;;;;;;;;;;;;;;;20.75;30.22;98972.50;4922766;29;1390;-79
2023/01/04 11:05:04;;;;;;;;;;;;;;;20.51;30.84;98962.97;4907799;29;1061;-79
2023/01/04 11:07:40;;;;;;;;;;;;;;;20.89;30.59;98965.94;4872988;29;1189;-80
2023/01/04 11:10:09;;;;;;;;;;;;;;;21.26;29.66;98968.00;4863662;29;1098;-77
2023/01/04 11:12:34;;;;;;;;;;;;;;;21.42;29.15;98967.47;4863637;29;1033;-77
2023/01/04 11:15:00;;;;;;;;;;;;;;;21.49;29.03;98970.22;4879593;29;983;-77
2023/01/04 11:17:25;;;;;;;;;;;;;;;21.11;29.70;98973.00;4848319;29;1006;-77
2023/01/04 11:19:51;;;;;;;;;;;;;;;20.81;30.26;98971.63;4848119;29;1919;-77
2023/01/04 11:22:26;;;;;;;;;;;;;;;20.81;30.31;98968.81;4832976;29;934;-77
2023/01/04 11:24:52;;;;;;;;;;;;;;;20.79;29.97;98967.63;4863318;29;1014;-77
2023/01/04 11:27:20;;;;;;;;;;;;;;;20.81;30.29;98960.31;4867329;29;1147;-77
2023/01/04 11:29:53;;;;;;;;;;;;;;;21.20;29.48;98962.00;4901192;29;1098;-79
2023/01/04 11:32:37;;;;;;;;;;;;;;;21.22;29.48;98962.38;4869976;29;1040;-79
2023/01/04 11:35:03;;;;;;;;;;;;;;;20.80;30.03;98958.72;4900681;29;1097;-79
2023/01/04 11:37:29;;;;;;;;;;;;;;;20.90;29.93;98964.72;4885358;29;935;-79
2023/01/04 11:40:17;;;;;;;;;;;;;;;21.16;29.61;98966.88;4869290;29;1981;-79
2023/01/04 11:42:44;;;;;;;;;;;;;;;21.19;29.70;98957.56;4901482;29;995;-79
2023/01/04 11:45:20;;;;;;;;;;;;;;;21.33;28.95;98957.44;4941448;29;1705;-80
2023/01/04 11:47:52;;;;;;;;;;;;;;;20.83;30.09;98959.91;4957418;29;1541;-79
2023/01/04 11:50:37;;;;;;;;;;;;;;;20.70;29.89;98965.25;4944482;29;1606;-79
2023/01/04 11:53:02;;;;;;;;;;;;;;;20.86;29.84;98978.06;4941823;29;1140;-79
2023/01/04 11:55:29;;;;;;;;;;;;;;;20.94;29.72;98968.31;4941926;29;1062;-80
2023/01/04 11:58:04;;;;;;;;;;;;;;;21.43;28.86;98966.25;4955861;28;895;-79
2023/01/04 12:00:29;;;;;;;;;;;;;;;21.22;29.19;98982.19;4977115;28;954;-79
2023/01/04 12:03:08;;;;;;;;;;;;;;;20.88;29.62;98970.78;4976379;28;1140;-79
2023/01/04 12:05:34;;;;;;;;;;;;;;;20.93;29.44;98961.81;4960708;28;973;-79
2023/01/04 12:07:59;;;;;;;;;;;;;;;20.68;29.71;98959.22;4976834;28;1087;-79
2023/01/04 12:10:25;;;;;;;;;;;;;;;21.12;29.17;98962.47;4976886;28;1031;-79
2023/01/04 12:12:51;;;;;;;;;;;;;;;21.30;29.17;98963.97;4976740;28;1048;-78
2023/01/04 12:15:18;;;;;;;;;;;;;;;21.11;28.95;98953.19;4976415;28;1001;-79
2023/01/04 12:17:46;;;;;;;;;;;;;;;21.09;29.42;98950.00;4976276;28;1179;-78
2023/01/04 12:20:16;;;;;;;;;;;;;;;20.70;29.70;98951.13;5019209;28;1910;-79
2023/01/04 12:22:41;;;;;;;;;;;;;;;20.84;29.54;98955.06;5019897;28;1206;-78
2023/01/04 12:25:23;;;;;;;;;;;;;;;21.35;28.94;98959.03;5037636;28;1030;-80
2023/01/04 12:27:49;;;;;;;;;;;;;;;21.27;28.86;98958.28;5035194;28;1148;-77
2023/01/04 12:30:33;;;;;;;;;;;;;;;21.26;28.80;98956.69;5018605;28;1066;-79
2023/01/04 12:32:58;;;;;;;;;;;;;;;21.00;29.25;98966.63;5034901;28;1210;-78
2023/01/04 12:35:42;;;;;;;;;;;;;;;20.75;29.49;98962.00;5034933;28;988;-78
2023/01/04 12:38:08;;;;;;;;;;;;;;;20.84;29.67;98970.00;5034554;28;1898;-78
2023/01/04 12:40:46;;;;;;;;;;;;;;;20.98;29.25;98969.88;4995257;28;1038;-78
2023/01/04 12:43:14;;;;;;;;;;;;;;;21.25;28.65;98972.88;4995506;28;1156;-79
2023/01/04 12:45:40;;;;;;;;;;;;;;;20.91;29.07;98964.28;4995559;28;966;-78
2023/01/04 12:51:24;;;;;;;;;;;;;;;20.75;29.59;98953.50;4995146;28;1109;-78
2023/01/04 12:53:50;;;;;;;;;;;;;;;21.14;28.78;98963.69;4979053;28;999;-78
2023/01/04 12:56:16;;;;;;;;;;;;;;;21.31;28.56;98965.56;4995120;28;975;-78
2023/01/04 12:58:41;;;;;;;;;;;;;;;21.02;28.87;98964.19;5003424;28;1910;-78
2023/01/04 13:01:08;;;;;;;;;;;;;;;20.91;29.31;98971.97;5014608;28;940;-79
2023/01/04 13:03:33;;;;;;;;;;;;;;;20.73;29.44;98957.97;5013670;28;1185;-78
2023/01/04 13:06:05;;;;;;;;;;;;;;;20.64;29.44;98954.81;5014501;28;1118;-78
2023/01/04 13:08:41;;;;;;;;;;;;;;;21.02;28.93;98958.53;5014607;28;993;-78
2023/01/04 13:11:27;;;;;;;;;;;;;;;21.19;28.61;98957.56;5021174;28;1061;-78
2023/01/04 13:13:55;;;;;;;;;;;;;;;21.07;28.88;98961.69;5036274;28;947;-78
2023/01/04 13:16:33;;;;;;;;;;;;;;;20.86;29.01;98955.44;5035749;28;980;-78
2023/01/04 13:19:00;;;;;;;;;;;;;;;20.74;29.54;98954.72;5018546;28;1967;-78
2023/01/04 13:21:41;;;;;;;;;;;;;;;20.73;29.25;98953.13;5035454;28;1014;-78
2023/01/04 13:24:16;;;;;;;;;;;;;;;21.34;28.50;98946.91;5035268;28;1048;-79
2023/01/04 13:26:44;;;;;;;;;;;;;;;21.18;28.56;98952.31;5035588;28;951;-79
2023/01/04 13:29:16;;;;;;;;;;;;;;;21.25;28.50;98955.88;5036055;28;1160;-79
2023/01/04 13:32:00;;;;;;;;;;;;;;;21.02;29.01;98964.19;5036310;28;1035;-79
2023/01/04 13:34:38;;;;;;;;;;;;;;;20.73;29.20;98955.97;5036000;28;1268;-79
2023/01/04 13:37:10;;;;;;;;;;;;;;;20.70;29.32;98953.94;5014072;28;1238;-79
2023/01/04 13:39:36;;;;;;;;;;;;;;;21.05;28.65;98967.00;5014327;28;1906;-79
2023/01/04 13:42:01;;;;;;;;;;;;;;;21.33;28.40;98960.28;4998134;28;993;-79
2023/01/04 13:44:31;;;;;;;;;;;;;;;21.05;28.54;98967.00;4981183;28;1126;-79
2023/01/04 13:46:57;;;;;;;;;;;;;;;20.77;28.89;98959.53;4997886;28;1186;-79
2023/01/04 13:49:22;;;;;;;;;;;;;;;20.73;29.13;98964.44;5014076;28;1104;-79
2023/01/04 13:51:48;;;;;;;;;;;;;;;21.00;28.76;98966.63;4997842;28;1023;-79
2023/01/04 13:54:20;;;;;;;;;;;;;;;21.00;29.04;98970.28;5013933;28;894;-79